Time;durP1;ratioP1;P1;durP2;ratioP2;P2;SDS_P1;SDS_P2;PMS_P1;PMS_P2;Temp;Humidity;BMP_temperature;BMP_pressure;BME280_temperature;BME280_humidity;BME280_pressure;Samples;Min_cycle;Max_cycle;Signal;HPM_P1;HPM_P2
2022/03/28 00:00:22;;;;;;;21.65;11.30;;;8.30;94.20;;;;;;5086154;28;20384;-83
2022/03/28 00:02:47;;;;;;;15.00;10.27;;;8.30;94.30;;;;;;5087977;28;20027;-82
2022/03/28 00:05:14;;;;;;;16.48;10.93;;;8.30;94.30;;;;;;5085464;28;20028;-82
2022/03/28 00:07:40;;;;;;;15.45;10.45;;;8.30;94.30;;;;;;5083201;28;20056;-81
2022/03/28 00:10:07;;;;;;;19.30;12.18;;;8.20;94.40;;;;;;5066520;28;20028;-83
2022/03/28 00:12:33;;;;;;;15.23;10.18;;;8.20;94.70;;;;;;5071168;28;20145;-82
2022/03/28 00:14:59;;;;;;;14.93;10.45;;;8.20;94.80;;;;;;5072179;28;20457;-82
2022/03/28 00:17:24;;;;;;;16.65;11.35;;;8.20;94.80;;;;;;5076900;28;20037;-83
2022/03/28 00:19:49;;;;;;;14.50;10.23;;;8.10;94.80;;;;;;5054864;28;20456;-82
2022/03/28 00:22:15;;;;;;;15.77;10.85;;;8.10;94.80;;;;;;5069316;28;20028;-83
2022/03/28 00:24:40;;;;;;;19.85;10.35;;;8.10;94.80;;;;;;5083019;28;20020;-84
2022/03/28 00:27:06;;;;;;;19.42;12.45;;;8.10;94.80;;;;;;5078573;28;20033;-83
2022/03/28 00:29:32;;;;;;;19.75;12.15;;;8.10;94.80;;;;;;5070514;28;20107;-82
2022/03/28 00:31:57;;;;;;;17.35;10.38;;;8.10;94.90;;;;;;5070740;28;20050;-83
2022/03/28 00:34:23;;;;;;;17.73;11.32;;;8.10;95.00;;;;;;5052934;28;20028;-84
2022/03/28 00:36:52;;;;;;;18.65;13.20;;;8.10;95.00;;;;;;5051595;28;20024;-84
2022/03/28 00:39:21;;;;;;;19.08;11.55;;;8.00;95.00;;;;;;5070663;28;20042;-85
2022/03/28 00:41:48;;;;;;;17.98;13.02;;;8.00;95.00;;;;;;5077549;28;20016;-83
2022/03/28 00:44:14;;;;;;;17.90;13.35;;;8.00;95.10;;;;;;5071165;28;20025;-83
2022/03/28 00:46:40;;;;;;;17.58;13.27;;;8.00;95.20;;;;;;5051326;28;20028;-83
2022/03/28 00:49:06;;;;;;;21.60;14.50;;;8.00;95.30;;;;;;5052321;28;20036;-83
2022/03/28 00:51:31;;;;;;;25.63;14.05;;;8.00;95.40;;;;;;5051612;28;20032;-83
2022/03/28 00:53:57;;;;;;;21.33;13.95;;;8.00;95.50;;;;;;5069461;28;20025;-83
2022/03/28 00:56:24;;;;;;;20.77;14.18;;;8.00;95.60;;;;;;5051571;28;20031;-83
2022/03/28 00:58:49;;;;;;;20.80;14.20;;;8.00;95.50;;;;;;5068708;28;20093;-83
2022/03/28 01:01:15;;;;;;;24.25;15.20;;;8.00;95.50;;;;;;5074388;28;20456;-83
2022/03/28 01:03:40;;;;;;;21.50;14.95;;;8.00;95.50;;;;;;5071614;28;20047;-83
2022/03/28 01:06:07;;;;;;;25.30;15.75;;;7.90;95.40;;;;;;5069416;28;20543;-84
2022/03/28 01:08:36;;;;;;;23.85;17.27;;;7.90;95.40;;;;;;5050997;28;20103;-83
2022/03/28 01:11:04;;;;;;;30.95;20.15;;;7.90;95.50;;;;;;5062994;28;20024;-82
2022/03/28 01:13:35;;;;;;;27.30;18.65;;;7.90;95.80;;;;;;5052107;28;20028;-82
2022/03/28 01:16:01;;;;;;;28.35;20.92;;;7.90;96.00;;;;;;5051281;28;20021;-82
2022/03/28 01:18:27;;;;;;;28.55;19.88;;;7.90;96.10;;;;;;5070056;28;20024;-83
2022/03/28 01:20:57;;;;;;;22.63;16.75;;;8.00;96.20;;;;;;5070891;28;20033;-83
2022/03/28 01:23:23;;;;;;;27.85;19.58;;;8.00;96.00;;;;;;5070730;28;20025;-84
2022/03/28 01:25:53;;;;;;;25.55;18.27;;;7.90;95.90;;;;;;5052391;28;20029;-82
2022/03/28 01:28:22;;;;;;;26.50;19.75;;;7.90;95.90;;;;;;5076870;28;20093;-82
2022/03/28 01:30:48;;;;;;;24.73;18.20;;;7.90;95.90;;;;;;5070165;28;20025;-84
2022/03/28 01:33:14;;;;;;;27.48;18.75;;;7.90;95.80;;;;;;5052051;28;20028;-82
2022/03/28 01:35:41;;;;;;;30.88;19.65;;;7.90;95.80;;;;;;5078296;28;20035;-82
2022/03/28 01:38:15;;;;;;;32.30;21.77;;;7.90;96.00;;;;;;5070237;28;20025;-84
2022/03/28 01:40:46;;;;;;;30.33;20.83;;;7.80;96.20;;;;;;5048710;28;20077;-83
2022/03/28 01:43:12;;;;;;;28.65;20.48;;;7.80;96.20;;;;;;5074806;28;20027;-82
2022/03/28 01:45:38;;;;;;;29.00;20.90;;;7.80;96.20;;;;;;5060291;28;20457;-84
2022/03/28 01:48:05;;;;;;;27.75;19.98;;;7.80;96.20;;;;;;5058414;28;20055;-84
2022/03/28 01:50:30;;;;;;;29.55;21.35;;;7.80;96.20;;;;;;5073613;28;20028;-83
2022/03/28 01:52:56;;;;;;;30.40;20.58;;;7.80;96.00;;;;;;5081934;28;20517;-82
2022/03/28 01:55:23;;;;;;;29.58;21.55;;;7.70;95.90;;;;;;5053274;28;20115;-82
2022/03/28 01:57:49;;;;;;;28.15;20.75;;;7.80;95.90;;;;;;5058546;28;20025;-83
2022/03/28 02:00:17;;;;;;;31.95;21.67;;;7.70;95.80;;;;;;5074823;28;20043;-81
2022/03/28 02:02:44;;;;;;;30.20;20.33;;;7.70;95.90;;;;;;5085396;28;20052;-83
2022/03/28 02:05:11;;;;;;;31.35;21.25;;;7.60;95.80;;;;;;5081120;28;20030;-81
2022/03/28 02:07:38;;;;;;;29.38;21.77;;;7.60;95.90;;;;;;5079415;28;20024;-82
2022/03/28 02:10:04;;;;;;;31.85;21.77;;;7.60;96.00;;;;;;5058279;28;20453;-83
2022/03/28 02:12:30;;;;;;;32.22;21.88;;;7.60;96.10;;;;;;5069384;28;20057;-82
2022/03/28 02:14:55;;;;;;;33.50;22.77;;;7.60;96.10;;;;;;5072037;28;20461;-84
2022/03/28 02:17:21;;;;;;;36.17;26.08;;;7.60;96.30;;;;;;5063829;28;20034;-83
2022/03/28 02:19:46;;;;;;;37.25;27.40;;;7.60;96.90;;;;;;5078342;28;20369;-82
2022/03/28 02:22:12;;;;;;;37.97;25.55;;;7.60;97.00;;;;;;5061967;28;20077;-82
2022/03/28 02:24:39;;;;;;;37.45;26.83;;;7.60;97.00;;;;;;5083487;28;20033;-84
2022/03/28 02:27:05;;;;;;;41.17;28.27;;;7.60;96.90;;;;;;5072987;28;20016;-83
2022/03/28 02:29:30;;;;;;;38.70;27.95;;;7.70;97.10;;;;;;5065442;28;20033;-84
2022/03/28 02:31:55;;;;;;;46.92;32.20;;;7.70;97.50;;;;;;5072796;28;20486;-83
2022/03/28 02:34:21;;;;;;;46.58;32.72;;;7.70;97.60;;;;;;5080297;28;20032;-83
2022/03/28 02:36:47;;;;;;;44.67;31.08;;;7.70;97.80;;;;;;5074180;28;20024;-84
2022/03/28 02:39:12;;;;;;;43.03;31.05;;;7.80;97.70;;;;;;5076330;28;20031;-83
2022/03/28 02:41:38;;;;;;;46.30;32.80;;;7.80;97.60;;;;;;5075830;28;20021;-83
2022/03/28 02:44:04;;;;;;;42.78;31.98;;;7.80;97.50;;;;;;5059394;28;20035;-82
2022/03/28 02:46:29;;;;;;;45.97;33.35;;;7.90;97.60;;;;;;5071840;28;20478;-84
2022/03/28 02:48:55;;;;;;;50.65;34.00;;;7.90;97.60;;;;;;5083034;28;20114;-83
2022/03/28 02:51:20;;;;;;;45.95;32.03;;;7.90;97.60;;;;;;5091002;28;20077;-82
2022/03/28 02:53:46;;;;;;;46.05;33.03;;;8.00;97.50;;;;;;5089130;28;22053;-84
2022/03/28 02:56:11;;;;;;;44.65;33.05;;;7.90;97.30;;;;;;5080421;28;20028;-83
2022/03/28 02:58:37;;;;;;;46.92;32.17;;;7.90;97.20;;;;;;5083134;28;20425;-83
2022/03/28 03:01:02;;;;;;;44.72;31.90;;;7.90;97.10;;;;;;5074130;28;20037;-82
2022/03/28 03:03:28;;;;;;;44.33;28.92;;;7.90;97.00;;;;;;5075725;28;20479;-82
2022/03/28 03:05:53;;;;;;;44.08;30.08;;;7.90;96.80;;;;;;5054123;28;20039;-84
2022/03/28 03:08:19;;;;;;;39.47;27.48;;;7.80;96.70;;;;;;5072060;28;20028;-81
2022/03/28 03:10:44;;;;;;;41.95;28.27;;;7.80;96.60;;;;;;5061643;28;20048;-83
2022/03/28 03:13:10;;;;;;;42.13;30.05;;;7.80;96.50;;;;;;5053867;28;20112;-83
2022/03/28 03:15:38;;;;;;;39.70;28.95;;;7.70;96.50;;;;;;5062489;28;20020;-82
2022/03/28 03:18:04;;;;;;;44.35;31.17;;;7.60;96.50;;;;;;5073240;28;20024;-83
2022/03/28 03:20:31;;;;;;;47.28;31.58;;;7.50;96.80;;;;;;5052532;28;20081;-84
2022/03/28 03:22:56;;;;;;;45.70;30.98;;;7.50;96.60;;;;;;5055057;28;20029;-85
2022/03/28 03:25:22;;;;;;;45.75;31.52;;;7.50;96.80;;;;;;5061194;28;20031;-82
2022/03/28 03:27:51;;;;;;;44.80;31.63;;;7.50;96.80;;;;;;5073508;28;20056;-83
2022/03/28 03:30:18;;;;;;;46.47;31.08;;;7.50;97.00;;;;;;5071970;28;20024;-83
2022/03/28 03:32:43;;;;;;;46.17;31.23;;;7.40;97.10;;;;;;5071624;28;20036;-83
2022/03/28 03:35:10;;;;;;;49.10;33.28;;;7.40;97.20;;;;;;5070955;28;20078;-83
2022/03/28 03:37:36;;;;;;;52.50;35.35;;;7.40;97.20;;;;;;5052709;28;20028;-83
2022/03/28 03:40:02;;;;;;;52.58;35.63;;;7.40;97.40;;;;;;5053710;28;20129;-84
2022/03/28 03:42:28;;;;;;;49.17;34.88;;;7.40;97.40;;;;;;5055461;28;20078;-83
2022/03/28 03:44:53;;;;;;;51.75;33.88;;;7.40;97.60;;;;;;5074267;28;20029;-82
2022/03/28 03:47:19;;;;;;;51.47;35.10;;;7.40;97.50;;;;;;5062196;28;20055;-83
2022/03/28 03:49:44;;;;;;;47.63;32.80;;;7.40;97.50;;;;;;5079376;28;20457;-83
2022/03/28 03:52:10;;;;;;;51.38;34.70;;;7.40;97.50;;;;;;5071871;28;20643;-83
2022/03/28 03:54:36;;;;;;;47.60;31.17;;;7.40;97.30;;;;;;5070539;28;20029;-83
2022/03/28 03:57:02;;;;;;;44.72;31.25;;;7.40;97.30;;;;;;5055647;28;20036;-83
2022/03/28 03:59:28;;;;;;;45.30;32.08;;;7.40;97.20;;;;;;5066377;28;20048;-82
2022/03/28 04:01:53;;;;;;;44.42;31.45;;;7.40;97.00;;;;;;5078795;28;20020;-83
2022/03/28 04:04:18;;;;;;;43.67;30.10;;;7.30;96.90;;;;;;5090020;28;20028;-82
2022/03/28 04:06:44;;;;;;;42.83;29.95;;;7.30;96.80;;;;;;5085664;28;20036;-82
2022/03/28 04:09:09;;;;;;;39.88;28.27;;;7.20;96.70;;;;;;5075122;28;20123;-82
2022/03/28 04:11:36;;;;;;;41.28;29.55;;;7.20;96.70;;;;;;5053382;28;20028;-84
2022/03/28 04:14:01;;;;;;;47.70;33.35;;;7.20;96.70;;;;;;5078489;28;20023;-83
2022/03/28 04:16:27;;;;;;;44.63;31.65;;;7.10;96.90;;;;;;5052615;28;20020;-83
2022/03/28 04:18:52;;;;;;;49.22;34.05;;;7.10;97.00;;;;;;5064541;28;20032;-82
2022/03/28 04:21:18;;;;;;;55.40;37.20;;;7.00;97.20;;;;;;5065761;28;20383;-83
2022/03/28 04:23:43;;;;;;;56.17;37.58;;;7.00;97.60;;;;;;5064399;28;20024;-82
2022/03/28 04:26:09;;;;;;;51.78;33.65;;;7.00;97.80;;;;;;5072215;28;20031;-83
2022/03/28 04:28:35;;;;;;;57.72;38.03;;;7.10;98.00;;;;;;5067391;28;20477;-82
2022/03/28 04:31:00;;;;;;;56.33;37.78;;;7.10;98.10;;;;;;5061226;28;20025;-83
2022/03/28 04:33:26;;;;;;;56.05;38.03;;;7.00;98.30;;;;;;5047533;28;20044;-83
2022/03/28 04:35:51;;;;;;;53.92;36.50;;;7.10;98.30;;;;;;5072375;28;20101;-82
2022/03/28 04:38:17;;;;;;;54.08;35.92;;;7.10;98.20;;;;;;5067447;28;20619;-82
2022/03/28 04:40:43;;;;;;;52.95;34.90;;;7.10;98.10;;;;;;5040395;28;20447;-83
2022/03/28 04:43:08;;;;;;;55.15;35.60;;;7.10;98.10;;;;;;5062726;28;20013;-84
2022/03/28 04:45:34;;;;;;;53.85;35.97;;;7.10;98.00;;;;;;5044897;28;20052;-83
2022/03/28 04:48:01;;;;;;;52.95;36.13;;;7.10;97.90;;;;;;5074729;28;20032;-83
2022/03/28 04:50:27;;;;;;;49.28;33.35;;;7.10;97.80;;;;;;5063879;28;20400;-83
2022/03/28 04:52:52;;;;;;;51.10;34.88;;;7.10;97.70;;;;;;5058707;28;20119;-83
2022/03/28 04:55:18;;;;;;;45.13;31.73;;;7.00;97.50;;;;;;5067949;28;20563;-83
2022/03/28 04:57:43;;;;;;;50.88;33.25;;;7.00;97.40;;;;;;5062798;28;20036;-83
2022/03/28 05:00:10;;;;;;;45.10;31.52;;;7.00;97.30;;;;;;5066780;28;20036;-83
2022/03/28 05:02:36;;;;;;;50.40;33.20;;;6.90;97.30;;;;;;5076198;28;20016;-83
2022/03/28 05:05:03;;;;;;;49.50;32.92;;;6.90;97.20;;;;;;5053738;28;20032;-83
2022/03/28 05:07:30;;;;;;;49.28;32.83;;;6.80;97.20;;;;;;5063564;28;20077;-83
2022/03/28 05:09:56;;;;;;;54.08;34.60;;;6.80;97.20;;;;;;5046666;28;20043;-83
2022/03/28 05:12:23;;;;;;;51.70;32.17;;;6.80;97.20;;;;;;5043432;28;20446;-83
2022/03/28 05:14:50;;;;;;;45.75;30.90;;;6.70;97.20;;;;;;5049150;28;20059;-82
2022/03/28 05:17:22;;;;;;;46.90;31.83;;;6.70;97.20;;;;;;5072711;28;20070;-82
2022/03/28 05:19:52;;;;;;;45.45;31.52;;;6.70;97.30;;;;;;5065368;28;20104;-82
2022/03/28 05:22:19;;;;;;;46.33;32.15;;;6.70;97.30;;;;;;5047011;28;20106;-82
2022/03/28 05:24:44;;;;;;;48.00;33.05;;;6.60;97.30;;;;;;5064654;28;20808;-81
2022/03/28 05:27:10;;;;;;;52.72;36.25;;;6.60;97.40;;;;;;5046279;28;20135;-82
2022/03/28 05:29:36;;;;;;;49.28;34.15;;;6.60;97.60;;;;;;5047006;28;20039;-83
2022/03/28 05:32:03;;;;;;;55.05;36.00;;;6.60;97.80;;;;;;5047044;28;20520;-82
2022/03/28 05:34:30;;;;;;;56.83;36.80;;;6.70;98.10;;;;;;5050613;28;20027;-82
2022/03/28 05:36:57;;;;;;;55.17;36.00;;;6.70;98.30;;;;;;5061778;28;20070;-83
2022/03/28 05:39:23;;;;;;;60.28;36.22;;;6.70;98.50;;;;;;5047415;28;20472;-82
2022/03/28 05:41:48;;;;;;;53.35;35.80;;;6.80;98.60;;;;;;5064577;28;20103;-82
2022/03/28 05:44:14;;;;;;;50.92;34.28;;;6.90;98.70;;;;;;5048712;28;20028;-83
2022/03/28 05:46:39;;;;;;;52.47;35.80;;;6.90;98.50;;;;;;5066975;28;20029;-83
2022/03/28 05:49:05;;;;;;;50.78;34.35;;;6.90;98.50;;;;;;5045734;28;20140;-83
2022/03/28 05:51:31;;;;;;;51.88;35.25;;;7.00;98.60;;;;;;5063146;28;20028;-82
2022/03/28 05:53:56;;;;;;;58.13;37.00;;;7.10;98.60;;;;;;5049445;28;20032;-83
2022/03/28 05:56:22;;;;;;;60.42;36.20;;;7.10;98.70;;;;;;5067717;28;20040;-81
2022/03/28 05:58:47;;;;;;;59.33;38.42;;;7.20;98.70;;;;;;5053449;28;20124;-82
2022/03/28 06:01:13;;;;;;;59.38;36.92;;;7.20;98.90;;;;;;5071477;28;20026;-82
2022/03/28 06:03:38;;;;;;;54.70;36.60;;;7.30;99.40;;;;;;5059351;28;20104;-81
2022/03/28 06:06:07;;;;;;;55.65;35.55;;;7.40;99.20;;;;;;5076466;28;20414;-83
2022/03/28 06:08:33;;;;;;;58.30;38.15;;;7.40;99.10;;;;;;5059776;28;20042;-82
2022/03/28 06:10:59;;;;;;;53.33;36.17;;;7.60;99.20;;;;;;5072128;28;20025;-82
2022/03/28 06:13:24;;;;;;;53.97;35.67;;;7.60;99.10;;;;;;5071272;28;20036;-83
2022/03/28 06:15:50;;;;;;;54.45;35.33;;;7.70;99.10;;;;;;5071767;28;20033;-82
2022/03/28 06:18:15;;;;;;;52.92;35.92;;;7.80;99.00;;;;;;5072698;28;20082;-83
2022/03/28 06:20:41;;;;;;;51.58;33.22;;;7.90;98.90;;;;;;5072228;28;20423;-82
2022/03/28 06:23:09;;;;;;;51.20;34.33;;;8.00;98.80;;;;;;5076867;28;20571;-83
2022/03/28 06:25:35;;;;;;;48.67;32.90;;;8.10;98.70;;;;;;5077889;28;20059;-82
2022/03/28 06:28:00;;;;;;;51.30;34.33;;;8.20;98.50;;;;;;5073087;28;20457;-82
2022/03/28 06:30:26;;;;;;;50.03;32.10;;;8.30;98.30;;;;;;5071365;28;20036;-82
2022/03/28 06:32:51;;;;;;;49.05;30.90;;;8.40;98.20;;;;;;5070821;28;20372;-83
2022/03/28 06:35:17;;;;;;;49.45;31.98;;;8.40;98.00;;;;;;5070248;28;20127;-83
2022/03/28 06:37:42;;;;;;;44.42;29.90;;;8.50;98.00;;;;;;5071166;28;20354;-83
2022/03/28 06:40:08;;;;;;;48.35;32.25;;;8.60;97.90;;;;;;5070907;28;20032;-82
2022/03/28 06:42:34;;;;;;;48.17;31.85;;;8.70;97.80;;;;;;5051458;28;20021;-83
2022/03/28 06:45:00;;;;;;;40.67;29.77;;;8.70;97.70;;;;;;5053012;28;20036;-83
2022/03/28 06:47:25;;;;;;;43.58;29.98;;;8.80;97.60;;;;;;5051851;28;20029;-82
2022/03/28 06:49:51;;;;;;;41.78;27.98;;;8.90;97.40;;;;;;5053137;28;20120;-83
2022/03/28 06:52:17;;;;;;;42.35;29.48;;;8.90;97.30;;;;;;5070533;28;20024;-83
2022/03/28 06:54:42;;;;;;;43.05;28.48;;;8.90;97.30;;;;;;5070161;28;20104;-83
2022/03/28 06:57:08;;;;;;;39.22;27.65;;;9.00;97.20;;;;;;5069405;28;20387;-82
2022/03/28 06:59:33;;;;;;;39.95;28.65;;;9.10;97.10;;;;;;5070237;28;20035;-83
2022/03/28 07:01:59;;;;;;;37.40;27.20;;;9.20;96.90;;;;;;5086544;28;20032;-83
2022/03/28 07:04:25;;;;;;;38.65;26.80;;;9.30;96.70;;;;;;5071950;28;20103;-83
2022/03/28 07:06:51;;;;;;;35.50;25.45;;;9.30;96.60;;;;;;5089783;28;20028;-83
2022/03/28 07:09:17;;;;;;;42.85;26.95;;;9.40;96.50;;;;;;5064088;28;20140;-83
2022/03/28 07:11:43;;;;;;;43.88;28.17;;;9.50;96.30;;;;;;5070356;28;20500;-83
2022/03/28 07:14:09;;;;;;;37.92;26.95;;;9.60;96.20;;;;;;5046647;28;20051;-82
2022/03/28 07:16:35;;;;;;;36.53;25.48;;;9.70;96.10;;;;;;5051115;28;20048;-84
2022/03/28 07:19:00;;;;;;;36.42;26.67;;;9.70;96.00;;;;;;5052687;28;20377;-83
2022/03/28 07:21:26;;;;;;;37.45;27.88;;;9.80;96.10;;;;;;5070417;28;20017;-83
2022/03/28 07:23:53;;;;;;;44.90;26.40;;;9.90;95.90;;;;;;5052018;28;20017;-83
2022/03/28 07:26:20;;;;;;;35.20;25.17;;;9.90;95.70;;;;;;5051868;28;20059;-84
2022/03/28 07:28:46;;;;;;;39.50;26.95;;;10.10;95.70;;;;;;5068335;28;20032;-83
2022/03/28 07:31:12;;;;;;;38.47;25.73;;;10.10;95.50;;;;;;5070238;28;20078;-84
2022/03/28 07:33:41;;;;;;;35.08;26.02;;;10.10;95.40;;;;;;5052901;28;20650;-85
2022/03/28 07:36:08;;;;;;;35.95;25.08;;;10.20;95.40;;;;;;5069963;28;20074;-85
2022/03/28 07:38:34;;;;;;;36.15;25.70;;;10.30;95.40;;;;;;5052697;28;20024;-84
2022/03/28 07:41:00;;;;;;;36.72;25.98;;;10.30;95.10;;;;;;5070428;28;20050;-86
2022/03/28 07:43:26;;;;;;;33.97;25.00;;;10.40;95.00;;;;;;5072091;28;20032;-87
2022/03/28 07:45:54;;;;;;;41.17;32.15;;;10.50;95.10;;;;;;5051825;28;20107;-84
2022/03/28 07:48:20;;;;;;;37.72;24.23;;;10.70;94.60;;;;;;5052994;28;20385;-85
2022/03/28 07:50:46;;;;;;;32.83;24.05;;;10.70;94.60;;;;;;5068857;28;20127;-83
2022/03/28 07:53:12;;;;;;;33.40;23.27;;;10.80;94.50;;;;;;5073747;28;20016;-84
2022/03/28 07:55:39;;;;;;;37.38;25.58;;;10.90;94.40;;;;;;5069859;28;20059;-88
2022/03/28 07:58:06;;;;;;;33.42;24.25;;;11.00;94.20;;;;;;5052974;28;20082;-86
2022/03/28 08:00:32;;;;;;;36.80;24.58;;;11.20;94.20;;;;;;5052559;28;20036;-86
2022/03/28 08:02:58;;;;;;;31.63;22.67;;;11.30;94.60;;;;;;5052656;28;20343;-87
2022/03/28 08:05:24;;;;;;;37.50;24.63;;;11.40;94.10;;;;;;5068114;28;20039;-85
2022/03/28 08:07:50;;;;;;;37.00;25.58;;;11.50;93.80;;;;;;5070447;28;20037;-87
2022/03/28 08:10:16;;;;;;;33.42;23.65;;;11.70;93.50;;;;;;5053828;28;20032;-86
2022/03/28 08:12:43;;;;;;;32.47;23.17;;;11.90;93.50;;;;;;5053924;28;20027;-87
2022/03/28 08:15:11;;;;;;;41.22;23.65;;;12.00;93.40;;;;;;5054077;28;20441;-85
2022/03/28 08:17:38;;;;;;;33.63;23.60;;;12.10;92.90;;;;;;5053633;28;20027;-86
2022/03/28 08:20:09;;;;;;;31.33;21.52;;;12.20;93.30;;;;;;5053235;28;20111;-86
2022/03/28 08:22:48;;;;;;;30.55;22.73;;;12.30;93.40;;;;;;5057236;28;20020;-86
2022/03/28 08:25:14;;;;;;;27.92;20.75;;;12.40;92.70;;;;;;5062405;28;20020;-85
2022/03/28 08:27:43;;;;;;;30.55;21.55;;;12.50;92.90;;;;;;5083746;28;20043;-88
2022/03/28 08:30:10;;;;;;;33.53;21.60;;;12.70;92.30;;;;;;5068760;28;20039;-86
2022/03/28 08:32:35;;;;;;;32.08;20.80;;;12.80;92.30;;;;;;5065875;28;20017;-85
2022/03/28 08:35:02;;;;;;;28.35;19.00;;;12.90;92.10;;;;;;5058429;28;20016;-87
2022/03/28 08:37:28;;;;;;;33.42;20.30;;;13.10;91.70;;;;;;5073210;28;20028;-84
2022/03/28 08:39:56;;;;;;;27.58;18.48;;;13.20;91.90;;;;;;5073926;28;20036;-85
2022/03/28 08:42:23;;;;;;;22.75;16.08;;;13.40;91.30;;;;;;5074078;28;20047;-85
2022/03/28 08:44:49;;;;;;;26.80;17.42;;;13.60;91.00;;;;;;5059537;28;20063;-85
2022/03/28 08:47:17;;;;;;;26.98;18.08;;;13.70;91.20;;;;;;5064652;28;20338;-90
2022/03/28 08:49:43;;;;;;;24.23;17.02;;;13.90;90.80;;;;;;5067111;28;20040;-84
2022/03/28 08:52:09;;;;;;;22.55;14.88;;;14.10;90.80;;;;;;5080490;28;20025;-85
2022/03/28 08:54:35;;;;;;;23.48;14.70;;;14.20;90.20;;;;;;5083384;28;20028;-87
2022/03/28 08:57:01;;;;;;;18.88;15.25;;;14.40;90.50;;;;;;5088282;28;20107;-84
2022/03/28 08:59:27;;;;;;;17.65;14.52;;;14.60;89.80;;;;;;5077603;28;20028;-85
2022/03/28 09:01:52;;;;;;;19.77;15.40;;;14.70;88.90;;;;;;5075854;28;20361;-85
2022/03/28 09:04:18;;;;;;;23.15;14.35;;;14.90;88.80;;;;;;5088661;28;20027;-85
2022/03/28 09:06:44;;;;;;;23.13;14.70;;;15.00;88.40;;;;;;5074437;28;20032;-83
2022/03/28 09:09:21;;;;;;;19.33;14.10;;;15.10;88.30;;;;;;5074644;28;20041;-87
2022/03/28 09:11:52;;;;;;;22.05;14.25;;;15.30;88.10;;;;;;5053860;28;20065;-86
2022/03/28 09:14:28;;;;;;;21.83;13.43;;;15.40;87.60;;;;;;5055047;28;20024;-89
2022/03/28 09:17:05;;;;;;;18.30;14.48;;;15.50;87.20;;;;;;5053150;28;20350;-87
2022/03/28 09:19:48;;;;;;;23.80;14.25;;;15.70;86.80;;;;;;5051753;28;20052;-89
2022/03/28 09:22:16;;;;;;;17.42;13.60;;;15.80;85.80;;;;;;5052011;28;20326;-87
2022/03/28 09:24:42;;;;;;;20.73;14.30;;;15.90;86.10;;;;;;5055995;28;20024;-89
2022/03/28 09:27:16;;;;;;;18.42;15.40;;;16.10;86.60;;;;;;5069383;28;20067;-87
2022/03/28 09:29:56;;;;;;;17.70;13.23;;;16.20;85.80;;;;;;5058178;28;20055;-91
2022/03/28 09:32:23;;;;;;;18.30;13.90;;;16.30;85.40;;;;;;5058852;28;20021;-89
2022/03/28 09:35:02;;;;;;;18.70;14.27;;;16.40;84.50;;;;;;5053010;28;20023;-87
2022/03/28 09:37:28;;;;;;;17.30;14.65;;;16.60;84.70;;;;;;5069929;28;20016;-88
2022/03/28 09:39:54;;;;;;;16.40;12.65;;;16.70;84.20;;;;;;5071094;28;20021;-87
2022/03/28 09:42:20;;;;;;;16.48;12.68;;;16.80;84.00;;;;;;5070895;28;20020;-89
2022/03/28 09:44:53;;;;;;;18.08;14.10;;;16.90;83.30;;;;;;5053594;28;20029;-88
2022/03/28 09:47:23;;;;;;;15.82;12.63;;;17.00;83.00;;;;;;5052321;28;20030;-90
2022/03/28 09:49:52;;;;;;;14.68;12.48;;;17.00;83.50;;;;;;5053295;28;20029;-88
2022/03/28 09:52:25;;;;;;;16.55;12.10;;;17.10;82.50;;;;;;5055255;28;20017;-86
2022/03/28 09:54:55;;;;;;;15.07;10.50;;;17.30;82.40;;;;;;5054895;28;20672;-86
2022/03/28 09:57:22;;;;;;;15.63;9.32;;;17.40;80.60;;;;;;5052829;28;20025;-87
2022/03/28 09:59:52;;;;;;;13.93;10.00;;;17.40;80.60;;;;;;5071085;28;20028;-86
2022/03/28 10:05:21;;;;;;;;;;;17.50;79.60;;;;;;5057969;28;20032;-90
2022/03/28 10:07:49;;;;;;;18.95;9.77;;;17.60;78.20;;;;;;5069443;28;19915;-91
2022/03/28 10:10:15;;;;;;;10.68;8.30;;;17.50;80.30;;;;;;5052833;28;20081;-85
2022/03/28 10:12:43;;;;;;;15.35;9.05;;;17.50;80.00;;;;;;5074215;28;20096;-87
2022/03/28 10:15:09;;;;;;;13.68;9.07;;;17.60;79.90;;;;;;5077755;28;20423;-87
2022/03/28 10:17:35;;;;;;;14.38;9.55;;;17.70;79.40;;;;;;5077122;28;20024;-86
2022/03/28 10:20:02;;;;;;;12.57;9.60;;;17.80;80.00;;;;;;5060144;28;20031;-86
2022/03/28 10:22:56;;;;;;;11.18;8.75;;;17.90;80.70;;;;;;5079081;28;20514;-86
2022/03/28 10:25:24;;;;;;;16.38;9.13;;;18.10;78.60;;;;;;5081519;28;20024;-85
2022/03/28 10:28:22;;;;;;;12.95;8.80;;;18.10;77.60;;;;;;5076735;28;20023;-85
2022/03/28 10:31:19;;;;;;;14.00;9.05;;;18.20;78.20;;;;;;5055412;28;20112;-88
2022/03/28 10:33:57;;;;;;;12.60;8.73;;;18.30;76.10;;;;;;5037601;28;20025;-85
2022/03/28 10:36:35;;;;;;;12.10;8.75;;;18.20;77.40;;;;;;5075450;28;20024;-86
2022/03/28 10:39:30;;;;;;;12.13;8.82;;;18.30;76.90;;;;;;5070641;28;20017;-85
2022/03/28 10:42:20;;;;;;;15.68;9.00;;;18.30;76.50;;;;;;5072044;28;20044;-86
2022/03/28 10:45:07;;;;;;;13.90;9.27;;;18.30;76.10;;;;;;5053698;28;20037;-86
2022/03/28 10:48:23;;;;;;;16.15;8.68;;;18.30;76.40;;;;;;5072977;28;20101;-87
2022/03/28 10:51:16;;;;;;;14.02;8.82;;;18.50;76.70;;;;;;5051507;28;20052;-88
2022/03/28 10:53:51;;;;;;;9.57;7.60;;;18.50;75.20;;;;;;5053953;28;20162;-89
2022/03/28 10:56:19;;;;;;;11.20;8.05;;;18.70;75.30;;;;;;5055112;28;20101;-87
2022/03/28 10:59:44;;;;;;;;;;;;;;;;;;;;;
2022/03/28 11:02:43;;;;;;;10.80;7.03;;;18.90;74.40;;;;;;5064769;28;20544;-86
2022/03/28 11:05:13;;;;;;;11.20;7.88;;;19.10;74.50;;;;;;5038923;28;20046;-89
2022/03/28 11:08:24;;;;;;;11.80;8.77;;;19.20;74.00;;;;;;5063023;28;20025;-87
2022/03/28 11:17:59;;;;;;;16.38;9.90;;;19.30;74.00;;;;;;5031584;28;20485;-88
2022/03/28 11:31:22;;;;;;;;;;;;;;;;;;;;;
2022/03/28 11:37:15;;;;;;;12.43;8.63;;;19.60;71.80;;;;;;5073631;28;20024;-88
2022/03/28 11:50:19;;;;;;;12.43;9.15;;;20.00;71.10;;;;;;4955097;28;20038;-88
2022/03/28 11:53:29;;;;;;;12.83;9.37;;;20.00;70.90;;;;;;4998326;28;20457;-91
2022/03/28 11:56:43;;;;;;;;;;;;;;;;;;;;;
2022/03/28 12:03:22;;;;;;;12.75;8.73;;;20.20;72.00;;;;;;4989227;28;20018;-89
2022/03/28 12:06:06;;;;;;;10.43;7.75;;;20.30;71.40;;;;;;5013233;28;20037;-89
2022/03/28 12:08:31;;;;;;;11.57;8.25;;;20.40;68.30;;;;;;5067630;28;20033;-89
2022/03/28 12:11:30;;;;;;;16.30;9.57;;;20.40;68.90;;;;;;5072008;28;20021;-87
2022/03/28 12:13:56;;;;;;;11.75;8.88;;;20.40;69.00;;;;;;5076070;28;20021;-89
2022/03/28 12:16:31;;;;;;;10.55;7.70;;;20.50;70.00;;;;;;5093591;28;20017;-89
2022/03/28 12:19:21;;;;;;;12.38;8.75;;;20.70;68.30;;;;;;5080417;28;20088;-89
2022/03/28 12:21:51;;;;;;;12.38;8.88;;;20.70;67.80;;;;;;5086750;28;20013;-88
2022/03/28 12:24:20;;;;;;;12.57;9.13;;;20.80;68.90;;;;;;5077501;28;20039;-88
2022/03/28 12:27:17;;;;;;;14.15;9.35;;;21.00;67.50;;;;;;5056147;28;20384;-87
2022/03/28 12:30:10;;;;;;;15.32;9.27;;;21.20;68.40;;;;;;5073527;28;20043;-88
2022/03/28 12:33:16;;;;;;;14.38;8.27;;;21.30;66.80;;;;;;5058034;28;20127;-87
2022/03/28 12:43:34;;;;;;;13.50;9.43;;;21.20;65.20;;;;;;5016565;28;20554;-87
2022/03/28 12:46:18;;;;;;;17.58;9.73;;;21.10;65.50;;;;;;4967988;28;20042;-88
2022/03/28 12:59:27;;;;;;;12.60;8.77;;;21.30;66.90;;;;;;5067551;28;20381;-87
2022/03/28 13:02:13;;;;;;;14.95;8.57;;;21.40;64.10;;;;;;5068560;28;20013;-87
2022/03/28 13:04:58;;;;;;;16.48;8.88;;;21.40;65.10;;;;;;5070417;28;20023;-88
2022/03/28 13:07:32;;;;;;;11.90;8.43;;;21.40;65.20;;;;;;5069880;28;20072;-88
2022/03/28 13:10:57;;;;;;;;;;;;;;;;;;;;;
2022/03/28 13:14:02;;;;;;;10.57;7.47;;;21.50;64.80;;;;;;5006840;28;20032;-86
2022/03/28 13:16:31;;;;;;;14.95;7.78;;;21.60;64.60;;;;;;5073662;28;20103;-86
2022/03/28 13:19:18;;;;;;;12.65;7.88;;;21.80;63.80;;;;;;5076382;28;20027;-86
2022/03/28 13:22:08;;;;;;;10.82;8.45;;;21.80;63.60;;;;;;5074295;28;20101;-86
2022/03/28 13:28:05;;;;;;;11.35;8.02;;;21.70;65.40;;;;;;5079130;28;20078;-87
2022/03/28 13:30:52;;;;;;;15.30;8.10;;;21.80;63.20;;;;;;5072346;28;20020;-86
2022/03/28 13:33:51;;;;;;;12.23;7.90;;;21.80;63.60;;;;;;5079363;28;20031;-87
2022/03/28 13:36:58;;;;;;;12.32;7.78;;;21.80;65.40;;;;;;5087777;28;20019;-85
2022/03/28 13:39:29;;;;;;;9.57;6.72;;;21.80;63.20;;;;;;5054296;28;20060;-86
2022/03/28 13:42:30;;;;;;;9.05;7.00;;;21.80;63.10;;;;;;5056842;28;20021;-86
2022/03/28 13:44:58;;;;;;;9.02;6.68;;;21.90;63.90;;;;;;5080605;28;20039;-87
2022/03/28 13:47:29;;;;;;;11.50;6.47;;;21.90;62.00;;;;;;5081662;28;20017;-87
2022/03/28 13:50:34;;;;;;;8.82;5.60;;;21.90;61.80;;;;;;5084630;28;20050;-87
2022/03/28 13:52:52;;;;;;;10.90;6.28;;;21.90;61.10;;;;;;5076112;28;20036;-85
2022/03/28 13:56:04;;;;;;;7.00;5.57;;;21.90;62.10;;;;;;5074756;28;20451;-86